Time;durP1;ratioP1;P1;durP2;ratioP2;P2;SDS_P1;SDS_P2;PMS_P1;PMS_P2;Temp;Humidity;BMP_temperature;BMP_pressure;BME280_temperature;BME280_humidity;BME280_pressure;Samples;Min_cycle;Max_cycle;Signal;HPM_P1;HPM_P2
2023/01/20 00:00:23;;;;;;;8.00;3.25;;;-0.30;99.90;;;;;;5085400;28;20530;-59
2023/01/20 00:02:49;;;;;;;8.30;3.35;;;-0.30;99.90;;;;;;5082076;28;20684;-60
2023/01/20 00:05:14;;;;;;;9.32;3.45;;;-0.40;99.90;;;;;;5062477;28;20621;-58
2023/01/20 00:07:43;;;;;;;9.88;3.75;;;-0.40;99.90;;;;;;5085499;28;20122;-59
2023/01/20 00:10:15;;;;;;;11.40;3.75;;;-0.40;99.90;;;;;;5085133;28;20058;-57
2023/01/20 00:12:41;;;;;;;12.45;3.75;;;-0.40;99.90;;;;;;5084314;28;20047;-58
2023/01/20 00:15:12;;;;;;;11.10;3.83;;;-0.50;99.90;;;;;;5085620;28;20048;-56
2023/01/20 00:17:38;;;;;;;11.63;3.47;;;-0.50;99.90;;;;;;5084377;28;20082;-58
2023/01/20 00:20:04;;;;;;;9.65;3.70;;;-0.60;99.90;;;;;;5085175;28;20079;-59
2023/01/20 00:22:30;;;;;;;12.63;4.03;;;-0.60;99.90;;;;;;5083903;28;20270;-58
2023/01/20 00:24:55;;;;;;;11.93;3.60;;;-0.60;99.90;;;;;;5084477;28;20498;-58
2023/01/20 00:27:21;;;;;;;8.07;3.63;;;-0.60;99.90;;;;;;5067740;28;20078;-56
2023/01/20 00:29:46;;;;;;;10.63;3.80;;;-0.60;99.90;;;;;;5084494;28;20040;-58
2023/01/20 00:32:12;;;;;;;10.30;4.00;;;-0.70;99.90;;;;;;5083678;28;20032;-58
2023/01/20 00:34:38;;;;;;;9.55;4.15;;;-0.70;99.90;;;;;;5084311;28;20138;-61
2023/01/20 00:37:04;;;;;;;11.18;4.10;;;-0.70;99.90;;;;;;5065230;28;20040;-64
2023/01/20 00:39:29;;;;;;;15.35;4.30;;;-0.70;99.90;;;;;;5067123;28;20273;-60
2023/01/20 00:41:55;;;;;;;11.82;4.63;;;-0.70;99.90;;;;;;5085063;28;20497;-59
2023/01/20 00:44:21;;;;;;;16.77;4.90;;;-0.70;99.90;;;;;;5085118;28;20056;-57
2023/01/20 00:46:46;;;;;;;11.27;4.50;;;-0.70;99.90;;;;;;5084190;28;20043;-63
2023/01/20 00:49:21;;;;;;;13.85;4.57;;;-0.70;99.90;;;;;;5082934;28;20240;-60
2023/01/20 00:51:46;;;;;;;12.05;5.07;;;-0.70;99.90;;;;;;5084093;28;20040;-59
2023/01/20 00:54:12;;;;;;;11.73;4.50;;;-0.70;99.90;;;;;;5083601;28;20090;-58
2023/01/20 00:56:37;;;;;;;11.43;4.85;;;-0.70;99.90;;;;;;5066219;28;20048;-57
2023/01/20 00:59:03;;;;;;;11.75;5.15;;;-0.70;99.90;;;;;;5065771;28;20040;-59
2023/01/20 01:01:29;;;;;;;14.13;5.38;;;-0.80;99.90;;;;;;5084390;28;20040;-59
2023/01/20 01:03:54;;;;;;;12.02;5.95;;;-0.80;99.90;;;;;;5073245;28;20055;-56
2023/01/20 01:06:22;;;;;;;19.55;6.15;;;-0.80;99.90;;;;;;5083938;28;20190;-56
2023/01/20 01:08:47;;;;;;;15.02;6.50;;;-0.90;99.90;;;;;;5083462;28;20119;-58
2023/01/20 01:11:13;;;;;;;15.75;6.85;;;-0.90;99.90;;;;;;5083591;28;20139;-58
2023/01/20 01:13:39;;;;;;;20.00;8.27;;;-0.80;99.90;;;;;;5084468;28;20085;-60
2023/01/20 01:16:13;;;;;;;17.10;8.70;;;-0.80;99.90;;;;;;5082909;28;20537;-58
2023/01/20 01:18:40;;;;;;;25.05;9.50;;;-0.80;99.90;;;;;;5073025;28;20036;-58
2023/01/20 01:21:08;;;;;;;25.50;9.55;;;-0.70;99.90;;;;;;5083415;28;20048;-58
2023/01/20 01:23:36;;;;;;;25.23;10.38;;;-0.70;99.90;;;;;;5084472;28;20614;-55
2023/01/20 01:26:01;;;;;;;26.10;9.73;;;-0.70;99.90;;;;;;5082919;28;20135;-59
2023/01/20 01:28:30;;;;;;;29.77;10.82;;;-0.70;99.90;;;;;;5083718;28;20062;-56
2023/01/20 01:31:02;;;;;;;29.90;10.25;;;-0.60;99.90;;;;;;5075358;28;20495;-58
2023/01/20 01:33:28;;;;;;;26.38;11.25;;;-0.60;99.90;;;;;;5058869;28;20043;-58
2023/01/20 01:35:59;;;;;;;30.80;11.32;;;-0.60;99.90;;;;;;5082043;28;20035;-57
2023/01/20 01:38:25;;;;;;;32.75;12.55;;;-0.60;99.90;;;;;;5082944;28;20636;-59
2023/01/20 01:40:52;;;;;;;34.40;12.65;;;-0.50;99.90;;;;;;5083555;28;20036;-58
2023/01/20 01:43:23;;;;;;;36.70;14.18;;;-0.50;99.90;;;;;;5083492;28;20064;-59
2023/01/20 01:45:49;;;;;;;43.90;14.15;;;-0.50;99.90;;;;;;5084029;28;20481;-57
2023/01/20 01:48:16;;;;;;;49.97;15.48;;;-0.40;99.90;;;;;;5078420;28;20123;-58
2023/01/20 01:50:47;;;;;;;49.22;17.10;;;-0.40;99.90;;;;;;5065943;28;20032;-58
2023/01/20 01:53:14;;;;;;;39.72;15.20;;;-0.40;99.90;;;;;;5062240;28;20702;-58
2023/01/20 01:55:49;;;;;;;40.60;15.02;;;-0.40;99.90;;;;;;5062844;28;20056;-59
2023/01/20 01:58:18;;;;;;;47.17;15.02;;;-0.40;99.90;;;;;;5063870;28;20336;-58
2023/01/20 02:00:44;;;;;;;37.35;14.27;;;-0.40;99.90;;;;;;5055668;28;20128;-59
2023/01/20 02:03:11;;;;;;;37.25;13.32;;;-0.30;99.90;;;;;;5066097;28;20507;-56
2023/01/20 02:05:38;;;;;;;35.35;14.00;;;-0.40;99.90;;;;;;5062894;28;20649;-59
2023/01/20 02:08:05;;;;;;;41.22;14.73;;;-0.40;99.90;;;;;;5082781;28;20039;-58
2023/01/20 02:10:31;;;;;;;36.67;14.02;;;-0.40;99.90;;;;;;5082959;28;20043;-58
2023/01/20 02:12:58;;;;;;;37.88;14.52;;;-0.40;99.90;;;;;;5082257;28;20093;-57
2023/01/20 02:15:30;;;;;;;32.03;13.80;;;-0.40;99.90;;;;;;5064959;28;20051;-57
2023/01/20 02:18:04;;;;;;;34.75;14.02;;;-0.40;99.90;;;;;;5056452;28;20055;-58
2023/01/20 02:20:48;;;;;;;41.70;14.98;;;-0.40;99.90;;;;;;5079730;28;20044;-59
2023/01/20 02:23:14;;;;;;;39.67;15.60;;;-0.40;99.90;;;;;;5082700;28;20546;-59
2023/01/20 02:26:18;;;;;;;46.90;16.10;;;-0.40;99.90;;;;;;5082327;28;20052;-58
2023/01/20 02:29:12;;;;;;;50.15;17.27;;;-0.30;99.90;;;;;;5082894;28;20569;-58
2023/01/20 02:32:05;;;;;;;41.17;15.35;;;-0.30;99.90;;;;;;5082865;28;20048;-59
2023/01/20 02:35:01;;;;;;;43.35;15.73;;;-0.30;99.90;;;;;;5080642;28;20044;-58
2023/01/20 02:37:30;;;;;;;39.95;16.05;;;-0.20;99.90;;;;;;5064673;28;20134;-58
2023/01/20 02:40:01;;;;;;;47.60;17.70;;;-0.20;99.90;;;;;;5064779;28;20048;-58
2023/01/20 02:42:40;;;;;;;39.72;15.52;;;-0.20;99.90;;;;;;5075181;28;20068;-58
2023/01/20 02:45:32;;;;;;;44.53;16.33;;;-0.20;99.90;;;;;;5063331;28;20392;-59
2023/01/20 02:48:43;;;;;;;36.92;14.73;;;-0.20;99.90;;;;;;5075021;28;20175;-59
2023/01/20 02:51:23;;;;;;;34.15;14.38;;;-0.10;99.90;;;;;;5068137;28;20039;-59
2023/01/20 02:54:05;;;;;;;40.47;17.23;;;-0.10;99.90;;;;;;5086262;28;20040;-57
2023/01/20 02:56:33;;;;;;;38.35;16.00;;;-0.10;99.90;;;;;;5085970;28;20515;-59
2023/01/20 02:59:14;;;;;;;38.92;15.95;;;-0.10;99.90;;;;;;5086800;28;20218;-58
2023/01/20 03:01:51;;;;;;;34.28;15.98;;;0.00;99.90;;;;;;5086742;28;20134;-60
2023/01/20 03:04:22;;;;;;;33.08;15.43;;;0.00;99.90;;;;;;5072806;28;20024;-57
2023/01/20 03:06:51;;;;;;;37.67;16.45;;;0.00;99.90;;;;;;5086378;28;20439;-57
2023/01/20 03:09:30;;;;;;;36.72;16.60;;;0.00;99.90;;;;;;5087192;28;20081;-58
2023/01/20 03:12:00;;;;;;;37.78;16.08;;;0.00;99.90;;;;;;5085986;28;20542;-56
2023/01/20 03:14:26;;;;;;;35.90;16.23;;;-0.10;99.90;;;;;;5068059;28;20782;-55
2023/01/20 03:16:52;;;;;;;33.75;15.98;;;0.00;99.90;;;;;;5053805;28;20101;-59
2023/01/20 03:19:18;;;;;;;35.25;16.08;;;0.00;99.90;;;;;;5075852;28;20072;-59
2023/01/20 03:21:44;;;;;;;31.92;16.00;;;0.00;99.90;;;;;;5085366;28;20038;-59
2023/01/20 03:24:10;;;;;;;37.00;17.85;;;0.00;99.90;;;;;;5086742;28;20040;-57
2023/01/20 03:26:37;;;;;;;34.92;16.77;;;-0.10;99.90;;;;;;5063245;28;20076;-56
2023/01/20 03:29:07;;;;;;;37.75;17.02;;;-0.10;99.90;;;;;;5065958;28;20032;-58
2023/01/20 03:31:49;;;;;;;35.55;17.50;;;-0.10;99.90;;;;;;5065506;28;20086;-61
2023/01/20 03:34:20;;;;;;;36.17;17.85;;;-0.10;99.90;;;;;;5084387;28;20043;-58
2023/01/20 03:36:46;;;;;;;39.35;17.63;;;-0.10;99.90;;;;;;5085334;28;20827;-58
2023/01/20 03:39:12;;;;;;;43.75;19.13;;;-0.10;99.90;;;;;;5085503;28;20042;-59
2023/01/20 03:41:52;;;;;;;45.00;18.80;;;-0.10;99.90;;;;;;5085468;28;20039;-58
2023/01/20 03:44:38;;;;;;;37.40;17.90;;;-0.20;99.90;;;;;;5067120;28;20611;-58
2023/01/20 03:47:12;;;;;;;42.60;19.27;;;-0.20;99.90;;;;;;5092622;28;20035;-59
2023/01/20 03:50:05;;;;;;;41.90;20.45;;;-0.20;99.90;;;;;;5078148;28;20050;-59
2023/01/20 03:52:51;;;;;;;41.03;18.27;;;-0.20;99.90;;;;;;5049124;28;20055;-59
2023/01/20 03:55:22;;;;;;;44.78;20.35;;;-0.20;99.90;;;;;;5064459;28;20052;-58
2023/01/20 03:58:05;;;;;;;43.83;19.48;;;-0.20;99.90;;;;;;5064009;28;20105;-58
2023/01/20 04:00:34;;;;;;;46.28;19.65;;;-0.20;99.90;;;;;;5046410;28;20068;-58
2023/01/20 04:03:03;;;;;;;42.70;18.58;;;-0.20;99.90;;;;;;5077596;28;20493;-58
2023/01/20 04:05:29;;;;;;;42.28;19.92;;;-0.20;99.90;;;;;;5080716;28;20633;-57
2023/01/20 04:07:58;;;;;;;48.38;20.75;;;-0.20;99.90;;;;;;5066753;28;20142;-58
2023/01/20 04:10:25;;;;;;;42.13;19.33;;;-0.20;99.90;;;;;;5084814;28;20131;-57
2023/01/20 04:12:51;;;;;;;47.70;20.63;;;-0.20;99.90;;;;;;5073407;28;20048;-57
2023/01/20 04:15:18;;;;;;;53.78;19.83;;;-0.20;99.90;;;;;;5066006;28;20040;-59
2023/01/20 04:17:44;;;;;;;53.67;20.73;;;-0.20;99.90;;;;;;5068950;28;20127;-58
2023/01/20 04:20:14;;;;;;;52.88;19.90;;;-0.30;99.90;;;;;;5084594;28;20119;-59
2023/01/20 04:22:56;;;;;;;43.17;17.83;;;-0.30;99.90;;;;;;5084461;28;20040;-58
2023/01/20 04:25:28;;;;;;;59.65;22.17;;;-0.30;99.90;;;;;;5084818;28;20494;-57
2023/01/20 04:27:54;;;;;;;61.20;20.40;;;-0.30;99.90;;;;;;5085087;28;20480;-58
2023/01/20 04:30:20;;;;;;;58.85;21.15;;;-0.30;99.90;;;;;;5085912;28;20040;-58
2023/01/20 04:32:45;;;;;;;55.97;21.52;;;-0.30;99.90;;;;;;5065274;28;20618;-57
2023/01/20 04:35:17;;;;;;;61.95;22.27;;;-0.30;99.90;;;;;;5066163;28;20052;-61
2023/01/20 04:37:43;;;;;;;53.53;19.73;;;-0.30;99.90;;;;;;5076985;28;20054;-58
2023/01/20 04:40:10;;;;;;;55.15;20.63;;;-0.30;99.90;;;;;;5085254;28;20532;-58
2023/01/20 04:42:36;;;;;;;53.25;20.17;;;-0.30;99.90;;;;;;5085144;28;20050;-57
2023/01/20 04:45:02;;;;;;;48.17;19.02;;;-0.30;99.90;;;;;;5073152;28;20068;-58
2023/01/20 04:47:32;;;;;;;53.85;20.38;;;-0.20;99.90;;;;;;5068775;28;20510;-58
2023/01/20 04:49:58;;;;;;;55.67;20.52;;;-0.30;99.90;;;;;;5084031;28;20044;-60
2023/01/20 04:52:24;;;;;;;51.10;18.65;;;-0.30;99.90;;;;;;5083937;28;20058;-60
2023/01/20 04:54:49;;;;;;;54.08;20.55;;;-0.30;99.90;;;;;;5084092;28;20683;-56
2023/01/20 04:57:15;;;;;;;53.65;21.10;;;-0.30;99.90;;;;;;5084347;28;20765;-59
2023/01/20 04:59:41;;;;;;;58.83;19.88;;;-0.30;99.90;;;;;;5083914;28;20048;-57
2023/01/20 05:02:07;;;;;;;51.85;19.65;;;-0.30;99.90;;;;;;5083090;28;20044;-58
2023/01/20 05:04:33;;;;;;;53.35;20.50;;;-0.30;99.90;;;;;;5060489;28;20563;-59
2023/01/20 05:06:58;;;;;;;51.13;18.95;;;-0.30;99.90;;;;;;5064239;28;20040;-58
2023/01/20 05:09:24;;;;;;;50.55;19.48;;;-0.30;99.90;;;;;;5063705;28;20044;-59
2023/01/20 05:11:49;;;;;;;56.35;20.20;;;-0.30;99.90;;;;;;5071002;28;20066;-58
2023/01/20 05:14:15;;;;;;;56.38;20.05;;;-0.30;99.90;;;;;;5084389;28;20136;-58
2023/01/20 05:16:41;;;;;;;61.28;19.38;;;-0.30;99.90;;;;;;5065966;28;20490;-58
2023/01/20 05:19:07;;;;;;;53.50;19.13;;;-0.20;99.90;;;;;;5063978;28;20044;-57
2023/01/20 05:21:33;;;;;;;47.88;17.85;;;-0.30;99.90;;;;;;5083816;28;20059;-58
2023/01/20 05:23:58;;;;;;;58.95;20.67;;;-0.30;99.90;;;;;;5084150;28;20150;-58
2023/01/20 05:26:25;;;;;;;49.45;18.77;;;-0.20;99.90;;;;;;5064924;28;20051;-60
2023/01/20 05:28:50;;;;;;;52.35;18.80;;;-0.30;99.90;;;;;;5082058;28;20050;-58
2023/01/20 05:31:25;;;;;;;50.63;18.48;;;-0.30;99.90;;;;;;5063075;28;20040;-59
2023/01/20 05:33:54;;;;;;;45.65;18.23;;;-0.30;99.90;;;;;;5078827;28;20056;-61
2023/01/20 05:36:19;;;;;;;45.53;17.35;;;-0.30;99.90;;;;;;5083447;28;20061;-57
2023/01/20 05:38:45;;;;;;;49.17;18.27;;;-0.30;99.90;;;;;;5082587;28;20139;-59
2023/01/20 05:41:13;;;;;;;46.92;18.55;;;-0.30;99.90;;;;;;5082613;28;20036;-58
2023/01/20 05:43:42;;;;;;;43.38;18.05;;;-0.30;99.90;;;;;;5083437;28;20044;-58
2023/01/20 05:46:08;;;;;;;51.03;18.25;;;-0.20;99.90;;;;;;5084001;28;20112;-61
2023/01/20 05:48:33;;;;;;;48.05;17.98;;;-0.20;99.90;;;;;;5082775;28;20036;-58
2023/01/20 05:50:59;;;;;;;50.17;19.55;;;-0.20;99.90;;;;;;5083040;28;20076;-59
2023/01/20 05:53:24;;;;;;;51.25;19.67;;;-0.20;99.90;;;;;;5081168;28;20040;-58
2023/01/20 05:55:58;;;;;;;46.83;18.85;;;-0.20;99.90;;;;;;5044670;28;20052;-60
2023/01/20 05:58:23;;;;;;;43.53;17.38;;;-0.20;99.90;;;;;;5068050;28;20078;-59
2023/01/20 06:00:51;;;;;;;50.53;19.08;;;-0.20;99.90;;;;;;5083910;28;20039;-58
2023/01/20 06:03:17;;;;;;;45.45;17.48;;;-0.20;99.90;;;;;;5081886;28;20032;-56
2023/01/20 06:05:43;;;;;;;45.03;17.50;;;-0.20;99.90;;;;;;5082995;28;20048;-60
2023/01/20 06:08:11;;;;;;;43.35;17.75;;;-0.20;99.90;;;;;;5082878;28;20054;-59
2023/01/20 06:10:37;;;;;;;51.65;18.30;;;-0.20;99.90;;;;;;5082844;28;20122;-59
2023/01/20 06:13:05;;;;;;;44.17;17.77;;;-0.20;99.90;;;;;;5083088;28;20044;-58
2023/01/20 06:15:40;;;;;;;46.08;18.48;;;-0.20;99.90;;;;;;5083473;28;20671;-58
2023/01/20 06:18:05;;;;;;;45.80;18.65;;;-0.20;99.90;;;;;;5082050;28;20035;-57
2023/01/20 06:20:31;;;;;;;42.15;16.35;;;-0.20;99.90;;;;;;5088309;28;20463;-59
2023/01/20 06:22:56;;;;;;;44.78;17.70;;;-0.20;99.90;;;;;;5088314;28;20039;-58
2023/01/20 06:25:22;;;;;;;42.55;17.02;;;-0.20;99.90;;;;;;5077050;28;20125;-58
2023/01/20 06:27:47;;;;;;;42.55;17.23;;;-0.20;99.90;;;;;;5088741;28;20048;-57
2023/01/20 06:30:22;;;;;;;44.58;18.33;;;-0.20;99.90;;;;;;5070395;28;20132;-60
2023/01/20 06:32:48;;;;;;;43.50;17.10;;;-0.20;99.90;;;;;;5076906;28;20028;-59
2023/01/20 06:35:14;;;;;;;42.72;17.05;;;-0.20;99.90;;;;;;5088952;28;20043;-57
2023/01/20 06:37:39;;;;;;;46.38;18.17;;;-0.30;99.90;;;;;;5092231;28;20106;-60
2023/01/20 06:40:08;;;;;;;46.55;18.85;;;-0.30;99.90;;;;;;5089924;28;20044;-59
2023/01/20 06:42:34;;;;;;;41.97;18.52;;;-0.30;99.90;;;;;;5084945;28;20864;-58
2023/01/20 06:45:00;;;;;;;48.28;19.95;;;-0.30;99.90;;;;;;5090074;28;20070;-57
2023/01/20 06:47:25;;;;;;;42.13;17.85;;;-0.30;99.90;;;;;;5072116;28;20041;-58
2023/01/20 06:49:54;;;;;;;47.13;19.30;;;-0.30;99.90;;;;;;5088106;28;20044;-57
2023/01/20 06:52:23;;;;;;;50.97;19.83;;;-0.20;99.90;;;;;;5087692;28;20433;-57
2023/01/20 06:54:48;;;;;;;48.03;20.25;;;-0.20;99.90;;;;;;5087398;28;20048;-59
2023/01/20 06:57:14;;;;;;;49.30;19.58;;;-0.20;99.90;;;;;;5091220;28;20036;-54
2023/01/20 06:59:39;;;;;;;52.03;20.42;;;-0.20;99.90;;;;;;5087987;28;20032;-59
2023/01/20 07:02:05;;;;;;;47.75;19.70;;;-0.20;99.90;;;;;;5089096;28;20063;-61
2023/01/20 07:04:31;;;;;;;53.75;21.02;;;-0.20;99.90;;;;;;5085761;28;20043;-58
2023/01/20 07:06:56;;;;;;;50.42;20.58;;;-0.20;99.90;;;;;;5065488;28;20083;-60
2023/01/20 07:09:22;;;;;;;55.08;20.55;;;-0.20;99.90;;;;;;5069701;28;20036;-57
2023/01/20 07:11:48;;;;;;;50.42;20.30;;;-0.20;99.90;;;;;;5088915;28;20064;-54
2023/01/20 07:14:13;;;;;;;54.60;21.52;;;-0.20;99.90;;;;;;5074055;28;20043;-61
2023/01/20 07:16:39;;;;;;;46.45;20.48;;;-0.20;99.90;;;;;;5099085;28;20058;-57
2023/01/20 07:19:05;;;;;;;53.22;20.35;;;-0.10;99.90;;;;;;5086864;28;20680;-63
2023/01/20 07:21:30;;;;;;;49.55;20.48;;;-0.10;99.90;;;;;;5050024;28;20420;-65
2023/01/20 07:24:03;;;;;;;51.97;21.20;;;-0.10;99.90;;;;;;5034118;28;20479;-62
2023/01/20 07:26:30;;;;;;;55.55;22.38;;;-0.10;99.90;;;;;;5051076;28;20048;-61
2023/01/20 07:28:59;;;;;;;50.50;20.42;;;-0.10;99.90;;;;;;5051274;28;20124;-64
2023/01/20 07:31:30;;;;;;;60.25;21.38;;;-0.10;99.90;;;;;;5050645;28;20048;-64
2023/01/20 07:33:56;;;;;;;47.40;20.83;;;-0.10;99.90;;;;;;5054959;28;20059;-61
2023/01/20 07:36:27;;;;;;;49.72;21.48;;;-0.10;99.90;;;;;;5067137;28;20051;-63
2023/01/20 07:38:53;;;;;;;54.33;22.20;;;-0.10;99.90;;;;;;5067424;28;20032;-63
2023/01/20 07:41:20;;;;;;;52.85;21.20;;;-0.10;99.90;;;;;;5067277;28;20089;-62
2023/01/20 07:43:53;;;;;;;52.78;22.00;;;-0.10;99.90;;;;;;5067284;28;20127;-63
2023/01/20 07:46:25;;;;;;;54.88;22.45;;;0.00;99.90;;;;;;5067655;28;20560;-62
2023/01/20 07:48:51;;;;;;;58.85;21.92;;;0.00;99.90;;;;;;5083682;28;20582;-61
2023/01/20 07:51:17;;;;;;;56.67;23.38;;;-0.10;99.90;;;;;;5067114;28;20052;-64
2023/01/20 07:53:45;;;;;;;53.97;22.38;;;0.00;99.90;;;;;;5067248;28;20591;-64
2023/01/20 07:56:22;;;;;;;53.72;23.08;;;0.00;99.90;;;;;;5065919;28;20352;-63
2023/01/20 07:58:49;;;;;;;54.35;22.83;;;0.00;99.90;;;;;;5067545;28;20044;-64
2023/01/20 08:01:14;;;;;;;62.53;22.80;;;0.00;99.90;;;;;;5085099;28;20038;-64
2023/01/20 08:03:41;;;;;;;51.95;22.67;;;0.00;99.90;;;;;;5059813;28;20037;-62
2023/01/20 08:06:09;;;;;;;54.20;22.63;;;0.00;99.90;;;;;;5054397;28;20052;-63
2023/01/20 08:08:35;;;;;;;55.30;23.17;;;0.00;99.90;;;;;;5048349;28;20044;-61
2023/01/20 08:11:02;;;;;;;58.05;23.52;;;0.00;99.90;;;;;;5066259;28;20214;-65
2023/01/20 08:13:28;;;;;;;60.40;24.52;;;0.00;99.90;;;;;;5067528;28;20092;-64
2023/01/20 08:15:54;;;;;;;54.83;23.77;;;0.10;99.90;;;;;;5067424;28;20170;-63
2023/01/20 08:18:20;;;;;;;54.42;23.27;;;0.10;99.90;;;;;;5084610;28;20428;-61
2023/01/20 08:20:48;;;;;;;52.90;23.38;;;0.10;99.90;;;;;;5067289;28;20115;-61
2023/01/20 08:23:14;;;;;;;52.90;23.20;;;0.10;99.90;;;;;;5066335;28;20531;-63
2023/01/20 08:25:39;;;;;;;55.50;24.90;;;0.10;99.90;;;;;;5066332;28;20127;-63
2023/01/20 08:28:05;;;;;;;54.70;22.67;;;0.10;99.90;;;;;;5066062;28;20044;-62
2023/01/20 08:30:30;;;;;;;55.55;23.10;;;0.10;99.90;;;;;;5066442;28;20143;-61
2023/01/20 08:32:56;;;;;;;50.72;22.10;;;0.20;99.90;;;;;;5083855;28;20554;-60
2023/01/20 08:35:22;;;;;;;59.72;23.65;;;0.20;99.90;;;;;;5065515;28;20613;-63
2023/01/20 08:37:47;;;;;;;52.10;23.35;;;0.20;99.90;;;;;;5065951;28;20482;-61
2023/01/20 08:40:13;;;;;;;59.90;24.05;;;0.20;99.90;;;;;;5066036;28;20048;-63
2023/01/20 08:42:42;;;;;;;56.58;25.30;;;0.30;99.90;;;;;;5045245;28;20040;-63
2023/01/20 08:45:08;;;;;;;55.00;24.38;;;0.30;99.90;;;;;;5064155;28;20502;-64
2023/01/20 08:47:43;;;;;;;53.67;22.65;;;0.30;99.90;;;;;;5069310;28;20047;-63
2023/01/20 08:50:10;;;;;;;53.97;22.88;;;0.30;99.90;;;;;;5075263;28;20069;-63
2023/01/20 08:52:41;;;;;;;55.47;23.40;;;0.30;99.90;;;;;;5063921;28;20070;-63
2023/01/20 08:55:07;;;;;;;56.58;24.33;;;0.30;99.90;;;;;;5063627;28;20044;-64
2023/01/20 08:57:33;;;;;;;55.75;22.40;;;0.30;99.90;;;;;;5063830;28;20063;-63
2023/01/20 08:59:58;;;;;;;50.00;21.83;;;0.40;99.90;;;;;;5063911;28;20043;-62
2023/01/20 09:02:27;;;;;;;54.15;22.75;;;0.40;99.90;;;;;;5064691;28;20041;-63
2023/01/20 09:04:55;;;;;;;58.60;25.05;;;0.40;99.90;;;;;;5080342;28;20040;-63
2023/01/20 09:07:21;;;;;;;50.85;23.95;;;0.40;99.90;;;;;;5083333;28;20079;-64
2023/01/20 09:09:47;;;;;;;50.35;22.75;;;0.40;99.90;;;;;;5083827;28;20360;-62
2023/01/20 09:12:12;;;;;;;51.60;22.30;;;0.50;99.90;;;;;;5082705;28;20718;-65
2023/01/20 09:14:40;;;;;;;53.58;24.20;;;0.50;99.90;;;;;;5083588;28;20100;-64
2023/01/20 09:17:06;;;;;;;54.08;23.42;;;0.50;99.90;;;;;;5065298;28;20829;-64
2023/01/20 09:19:31;;;;;;;57.92;25.13;;;0.40;99.90;;;;;;5073044;28;20117;-65
2023/01/20 09:22:02;;;;;;;59.72;25.13;;;0.50;99.90;;;;;;5065527;28;20039;-64
2023/01/20 09:24:27;;;;;;;53.08;24.13;;;0.50;99.90;;;;;;5083642;28;20055;-62
2023/01/20 09:26:53;;;;;;;52.95;23.85;;;0.50;99.90;;;;;;5084455;28;20047;-60
2023/01/20 09:29:19;;;;;;;56.05;23.30;;;0.50;99.90;;;;;;5071144;28;20033;-64
2023/01/20 09:31:56;;;;;;;54.03;23.85;;;0.50;99.90;;;;;;5045538;28;20483;-63
2023/01/20 09:34:23;;;;;;;;;;;0.60;99.90;;;;;;5064589;28;20040;-63
2023/01/20 09:46:07;;;;;;;58.05;24.90;;;0.60;99.90;;;;;;5083249;28;20050;-62
2023/01/20 09:54:50;;;;;;;58.85;24.90;;;0.60;99.90;;;;;;5045201;28;20060;-61
2023/01/20 09:57:20;;;;;;;56.63;24.75;;;0.60;99.90;;;;;;5044198;28;20067;-62
2023/01/20 09:59:59;;;;;;;58.97;25.17;;;0.70;99.90;;;;;;5073791;28;20040;-62
2023/01/20 10:02:29;;;;;;;60.78;25.35;;;0.70;99.90;;;;;;5047942;28;20475;-63
2023/01/20 10:05:06;;;;;;;58.65;23.92;;;0.70;99.90;;;;;;5043251;28;20045;-61
2023/01/20 10:07:40;;;;;;;60.47;24.50;;;0.70;99.90;;;;;;5045406;28;20044;-68
2023/01/20 10:10:21;;;;;;;61.17;25.02;;;0.70;99.90;;;;;;5048050;28;20047;-64
2023/01/20 10:13:09;;;;;;;57.80;24.98;;;0.70;99.90;;;;;;5064888;28;20059;-64
2023/01/20 10:15:38;;;;;;;64.35;26.48;;;0.70;99.90;;;;;;5064995;28;20494;-64
2023/01/20 10:18:04;;;;;;;63.13;24.50;;;0.70;99.90;;;;;;5056637;28;20058;-67
2023/01/20 10:20:54;;;;;;;64.47;25.08;;;0.70;99.90;;;;;;5063007;28;20122;-64
2023/01/20 10:23:29;;;;;;;58.72;25.40;;;0.80;99.90;;;;;;5062928;28;20040;-63
2023/01/20 10:26:09;;;;;;;62.08;24.35;;;0.70;99.90;;;;;;5062466;28;20153;-65
2023/01/20 10:28:39;;;;;;;58.70;24.77;;;0.80;99.90;;;;;;5061828;28;20048;-65
2023/01/20 10:31:05;;;;;;;59.97;24.83;;;0.80;99.90;;;;;;5063304;28;20459;-63
2023/01/20 10:33:37;;;;;;;62.65;26.40;;;0.80;99.90;;;;;;5067859;28;20032;-65
2023/01/20 10:36:11;;;;;;;66.03;25.08;;;0.80;99.90;;;;;;5058874;28;20039;-65
2023/01/20 10:38:37;;;;;;;;;;;0.80;99.90;;;;;;5063156;28;20044;-64
2023/01/20 10:41:20;;;;;;;59.55;24.75;;;0.90;99.90;;;;;;5078417;28;19916;-66
2023/01/20 10:43:46;;;;;;;58.40;25.03;;;0.90;99.90;;;;;;5064663;28;20040;-64
2023/01/20 10:46:46;;;;;;;60.28;24.90;;;0.90;99.90;;;;;;5083087;28;20100;-63
2023/01/20 10:49:18;;;;;;;62.38;24.70;;;1.00;99.90;;;;;;5053578;28;20181;-64
2023/01/20 10:51:52;;;;;;;56.92;23.08;;;1.00;99.90;;;;;;5063714;28;20059;-64
2023/01/20 10:54:55;;;;;;;55.35;23.95;;;1.00;99.90;;;;;;5064331;28;20157;-66
2023/01/20 10:57:24;;;;;;;61.53;25.15;;;1.00;99.90;;;;;;5063978;28;20584;-65
2023/01/20 10:59:57;;;;;;;59.40;24.85;;;0.90;99.90;;;;;;5050177;28;20122;-63
2023/01/20 11:02:24;;;;;;;63.10;23.60;;;0.90;99.90;;;;;;5047337;28;20040;-63
2023/01/20 11:05:15;;;;;;;66.53;25.83;;;0.90;99.90;;;;;;5081354;28;20098;-65
2023/01/20 11:07:43;;;;;;;53.63;24.13;;;1.00;99.90;;;;;;5083050;28;20036;-65
2023/01/20 11:10:20;;;;;;;63.25;24.80;;;0.90;99.90;;;;;;5067970;28;20044;-64
2023/01/20 11:12:50;;;;;;;65.25;24.52;;;1.00;99.90;;;;;;5079809;28;20448;-63
2023/01/20 11:15:22;;;;;;;57.50;24.58;;;1.00;99.90;;;;;;5067749;28;20109;-62
2023/01/20 11:18:14;;;;;;;57.55;23.92;;;1.00;99.90;;;;;;5066999;28;20101;-67
2023/01/20 11:21:04;;;;;;;62.65;24.95;;;1.10;99.90;;;;;;5053965;28;20529;-63
2023/01/20 11:23:54;;;;;;;58.88;24.65;;;1.10;99.90;;;;;;5068721;28;20509;-66
2023/01/20 11:26:31;;;;;;;60.05;25.45;;;1.10;99.90;;;;;;5067624;28;20044;-66
2023/01/20 11:29:22;;;;;;;66.72;24.80;;;1.10;99.90;;;;;;5052415;28;20044;-62
2023/01/20 11:31:54;;;;;;;69.65;26.38;;;1.20;99.90;;;;;;5066984;28;20069;-61
2023/01/20 11:34:30;;;;;;;56.30;24.63;;;1.20;99.90;;;;;;5066780;28;20382;-64
2023/01/20 11:37:02;;;;;;;57.45;24.80;;;1.20;99.90;;;;;;5067157;28;20097;-64
2023/01/20 11:39:43;;;;;;;57.00;24.67;;;1.20;99.90;;;;;;5067783;28;20043;-61
2023/01/20 11:42:22;;;;;;;57.33;23.15;;;1.20;99.90;;;;;;5066665;28;20054;-64
2023/01/20 11:44:57;;;;;;;52.92;24.55;;;1.10;99.90;;;;;;5086248;28;20051;-63
2023/01/20 11:47:34;;;;;;;62.08;23.73;;;1.10;99.90;;;;;;5085624;28;20040;-64
2023/01/20 11:50:08;;;;;;;60.40;23.25;;;1.10;99.90;;;;;;5063242;28;20036;-62
2023/01/20 11:52:38;;;;;;;55.85;23.95;;;1.10;99.90;;;;;;5065915;28;20403;-67
2023/01/20 11:55:22;;;;;;;55.40;22.40;;;1.00;99.90;;;;;;5047738;28;20060;-64
2023/01/20 11:57:55;;;;;;;;;;;1.00;99.90;;;;;;5048493;28;20044;-63
2023/01/20 12:00:41;;;;;;;49.05;21.27;;;1.10;99.90;;;;;;5059803;28;19919;-64
2023/01/20 12:03:45;;;;;;;56.92;23.35;;;1.10;99.90;;;;;;5061668;28;20058;-65
2023/01/20 12:06:34;;;;;;;55.45;22.88;;;1.10;99.90;;;;;;5066328;28;20048;-66
2023/01/20 12:09:01;;;;;;;55.38;22.52;;;1.10;99.90;;;;;;5084930;28;20785;-61
2023/01/20 12:11:35;;;;;;;54.33;23.20;;;1.10;99.90;;;;;;5084931;28;20074;-65
2023/01/20 12:14:23;;;;;;;57.38;23.85;;;1.10;99.90;;;;;;5067112;28;20675;-62
2023/01/20 12:16:54;;;;;;;62.08;25.63;;;1.10;99.90;;;;;;5085448;28;20044;-63
2023/01/20 12:19:26;;;;;;;55.55;23.63;;;1.10;99.90;;;;;;5064424;28;20403;-62
2023/01/20 12:21:55;;;;;;;61.25;23.95;;;1.10;99.90;;;;;;5065932;28;20429;-62
2023/01/20 12:27:27;;;;;;;59.67;23.83;;;1.10;99.90;;;;;;5085135;28;20044;-66
2023/01/20 12:29:59;;;;;;;53.17;23.10;;;1.10;99.90;;;;;;5051891;28;20551;-65
2023/01/20 12:32:24;;;;;;;59.70;24.35;;;1.10;99.90;;;;;;5049505;28;20058;-63
2023/01/20 12:34:50;;;;;;;52.35;23.55;;;1.10;99.90;;;;;;5056461;28;20047;-66
2023/01/20 12:37:43;;;;;;;53.65;22.25;;;1.10;99.90;;;;;;5066410;28;20135;-62
2023/01/20 12:40:39;;;;;;;58.78;23.88;;;1.20;99.90;;;;;;5065964;28;20027;-63
2023/01/20 12:43:29;;;;;;;60.90;24.77;;;1.10;99.90;;;;;;5066630;28;20040;-65
2023/01/20 12:46:02;;;;;;;58.42;24.25;;;1.10;99.90;;;;;;5067059;28;20044;-63
2023/01/20 12:48:41;;;;;;;60.47;24.10;;;1.10;99.90;;;;;;5058590;28;20045;-64
2023/01/20 12:51:25;;;;;;;57.28;24.52;;;1.10;99.90;;;;;;5044059;28;20036;-61
2023/01/20 12:54:30;;;;;;;65.07;24.63;;;1.10;99.90;;;;;;5058418;28;20763;-63
2023/01/20 12:57:08;;;;;;;61.75;25.67;;;1.10;99.90;;;;;;5065204;28;20136;-68
2023/01/20 13:00:06;;;;;;;58.75;24.02;;;1.10;99.90;;;;;;5066650;28;20043;-67
2023/01/20 13:02:46;;;;;;;66.28;23.27;;;1.10;99.90;;;;;;5083845;28;20097;-67
2023/01/20 13:05:38;;;;;;;57.20;24.15;;;1.10;99.90;;;;;;5082465;28;20537;-61
2023/01/20 13:08:17;;;;;;;57.90;23.10;;;1.00;99.90;;;;;;5065935;28;20454;-63
2023/01/20 13:11:26;;;;;;;61.72;24.63;;;1.10;99.90;;;;;;5066466;28;20394;-63